createdAt,value
2018-12-12T00:02:24.775Z,99.19
2018-12-12T00:05:31.443Z,99.12
2018-12-12T00:08:38.342Z,98.97
2018-12-12T00:11:57.502Z,98.96
2018-12-12T00:15:05.215Z,99.42
2018-12-12T00:18:24.878Z,99.76
2018-12-12T00:21:31.533Z,99.53
2018-12-12T00:24:38.293Z,99.66
2018-12-12T00:27:57.322Z,99.32
2018-12-12T00:31:03.985Z,99.60
2018-12-12T00:34:10.726Z,99.73
2018-12-12T00:37:17.385Z,99.52
2018-12-12T00:40:24.071Z,99.83
2018-12-12T00:43:42.863Z,99.65
2018-12-12T00:46:50.360Z,99.45
2018-12-12T00:49:57.109Z,99.25
2018-12-12T00:53:03.895Z,99.27
2018-12-12T00:56:10.659Z,98.70
2018-12-12T00:59:30.001Z,99.18
2018-12-12T01:02:36.773Z,99.01
2018-12-12T01:05:43.449Z,98.65
2018-12-12T01:09:04.160Z,99.14
2018-12-12T01:12:12.620Z,98.87
2018-12-12T01:15:20.449Z,99.35
2018-12-12T01:18:27.506Z,99.11
2018-12-12T01:21:34.271Z,99.06
2018-12-12T01:24:41.245Z,99.28
2018-12-12T01:27:48.079Z,99.37
2018-12-12T01:31:07.572Z,99.27
2018-12-12T01:34:14.318Z,99.73
2018-12-12T01:37:21.102Z,99.47
2018-12-12T01:40:28.362Z,99.38
2018-12-12T01:43:35.231Z,99.68
2018-12-12T01:46:54.646Z,99.82
2018-12-12T01:50:01.504Z,99.53
2018-12-12T01:53:08.378Z,99.64
2018-12-12T01:56:15.778Z,99.48
2018-12-12T01:59:22.770Z,99.52
2018-12-12T02:02:41.674Z,99.44
2018-12-12T02:05:48.442Z,99.20
2018-12-12T02:08:55.431Z,99.39
2018-12-12T02:12:03.331Z,99.49
2018-12-12T02:15:10.569Z,99.59
2018-12-12T02:18:17.422Z,99.61
2018-12-12T02:21:24.432Z,99.84
2018-12-12T02:24:31.197Z,99.63
2018-12-12T02:27:50.418Z,99.38
2018-12-12T02:30:57.172Z,99.72
2018-12-12T02:34:03.926Z,99.97
2018-12-12T02:37:23.103Z,99.95
2018-12-12T02:40:29.762Z,99.79
2018-12-12T02:43:36.673Z,99.81
2018-12-12T02:46:57.835Z,100.00
2018-12-12T02:50:05.090Z,99.87
2018-12-12T02:53:11.745Z,99.75
2018-12-12T02:56:18.686Z,99.85
2018-12-12T02:59:25.674Z,99.95
2018-12-12T03:02:32.862Z,99.92
2018-12-12T03:05:54.151Z,99.71
2018-12-12T03:09:00.822Z,100.00
2018-12-12T03:12:07.921Z,100.00
2018-12-12T03:15:28.247Z,99.97
2018-12-12T03:18:35.425Z,100.00
2018-12-12T03:21:42.101Z,100.00
2018-12-12T03:25:01.148Z,100.00
2018-12-12T03:28:21.479Z,99.96
2018-12-12T03:31:40.883Z,100.00
2018-12-12T03:34:47.631Z,100.00
2018-12-12T03:37:54.396Z,100.00
2018-12-12T03:41:13.575Z,99.57
2018-12-12T03:44:20.346Z,99.77
2018-12-12T03:47:27.581Z,99.75
2018-12-12T03:50:34.254Z,99.75
2018-12-12T03:53:43.841Z,99.78
2018-12-12T03:56:53.538Z,99.78
2018-12-12T04:00:03.890Z,99.57
2018-12-12T04:03:13.545Z,99.40
2018-12-12T04:06:28.441Z,99.35
2018-12-12T04:09:35.449Z,99.50
2018-12-12T04:12:41.390Z,99.29
2018-12-12T04:15:48.242Z,99.19
2018-12-12T04:18:56.020Z,99.04
2018-12-12T04:22:03.129Z,99.29
2018-12-12T04:25:10.047Z,99.12
2018-12-12T04:28:28.852Z,98.51
2018-12-12T04:31:49.113Z,98.61
2018-12-12T04:35:06.914Z,99.07
2018-12-12T04:38:23.174Z,99.12
2018-12-12T04:41:42.183Z,99.45
2018-12-12T04:44:57.666Z,99.35
2018-12-12T04:48:13.178Z,99.48
2018-12-12T04:51:32.815Z,99.48
2018-12-12T04:54:40.814Z,99.18
2018-12-12T04:57:48.265Z,99.24
2018-12-12T05:00:54.991Z,99.58
2018-12-12T05:04:02.554Z,99.50
2018-12-12T05:07:09.203Z,99.21
2018-12-12T05:10:28.549Z,99.35
2018-12-12T05:13:35.322Z,99.59
2018-12-12T05:16:42.010Z,98.86
2018-12-12T05:20:01.210Z,98.79
2018-12-12T05:23:08.069Z,98.76
2018-12-12T05:26:14.820Z,99.16
2018-12-12T05:29:33.909Z,98.61
2018-12-12T05:32:40.676Z,99.26
2018-12-12T05:35:47.440Z,98.84
2018-12-12T05:39:07.786Z,98.94
2018-12-12T05:42:14.571Z,98.79
2018-12-12T05:45:34.076Z,99.30
2018-12-12T05:48:40.755Z,98.94
2018-12-12T05:51:47.407Z,99.19
2018-12-12T05:55:07.207Z,99.08
2018-12-12T05:58:31.540Z,99.20
2018-12-12T06:01:39.245Z,99.16
2018-12-12T06:04:45.902Z,99.08
2018-12-12T06:08:05.153Z,99.02
2018-12-12T06:11:11.825Z,99.54
2018-12-12T06:14:18.845Z,99.05
2018-12-12T06:17:37.843Z,99.06
2018-12-12T06:20:44.665Z,99.24
2018-12-12T06:23:51.514Z,99.34
2018-12-12T06:27:10.531Z,99.45
2018-12-12T06:30:17.557Z,99.23
2018-12-12T06:33:24.325Z,99.33
2018-12-12T06:36:49.217Z,99.15
2018-12-12T06:39:55.969Z,99.45
2018-12-12T06:43:04.264Z,99.72
2018-12-12T06:46:10.919Z,99.60
2018-12-12T06:49:17.890Z,99.50
2018-12-12T06:52:24.668Z,99.78
2018-12-12T06:55:43.530Z,99.53
2018-12-12T06:58:50.277Z,99.41
2018-12-12T07:01:57.376Z,99.71
2018-12-12T07:05:04.807Z,99.91
2018-12-12T07:08:11.573Z,99.71
2018-12-12T07:11:35.712Z,99.78
2018-12-12T07:14:42.465Z,99.57
2018-12-12T07:17:49.189Z,99.42
2018-12-12T07:21:08.334Z,99.66
2018-12-12T07:24:15.111Z,99.62
2018-12-12T07:27:21.791Z,99.80
2018-12-12T07:30:41.029Z,99.47
2018-12-12T07:33:47.748Z,99.63
2018-12-12T07:36:54.833Z,99.79
2018-12-12T07:40:13.715Z,100.00
2018-12-12T07:43:21.409Z,99.88
2018-12-12T07:46:28.300Z,99.85
2018-12-12T07:49:35.500Z,99.86
2018-12-12T07:52:42.345Z,99.65
2018-12-12T07:55:49.445Z,99.89
2018-12-12T07:58:56.222Z,99.64
2018-12-12T08:02:15.234Z,99.97
2018-12-12T08:05:22.102Z,100.00
2018-12-12T08:08:29.010Z,99.64
2018-12-12T08:11:36.010Z,100.00
2018-12-12T08:15:03.058Z,99.74
2018-12-12T08:18:09.914Z,99.94
2018-12-12T08:21:16.796Z,99.79
2018-12-12T08:24:23.562Z,100.00
2018-12-12T08:27:42.518Z,99.91
2018-12-12T08:30:49.481Z,99.57
2018-12-12T08:33:56.193Z,99.96
2018-12-12T08:37:15.239Z,100.00
2018-12-12T08:40:22.204Z,100.00
2018-12-12T08:43:28.861Z,100.00
2018-12-12T08:46:47.871Z,99.79
2018-12-12T08:49:55.199Z,100.00
2018-12-12T08:53:01.965Z,100.00
2018-12-12T08:56:07.904Z,100.00
2018-12-12T08:59:14.580Z,100.00
2018-12-12T09:02:21.333Z,100.00
2018-12-12T09:05:40.582Z,100.00
2018-12-12T09:08:47.247Z,99.91
2018-12-12T09:11:54.207Z,100.00
2018-12-12T09:15:13.671Z,99.90
2018-12-12T09:18:20.433Z,99.88
2018-12-12T09:21:27.113Z,99.92
2018-12-12T09:24:33.874Z,100.00
2018-12-12T09:27:53.194Z,99.88
2018-12-12T09:30:59.858Z,99.76
2018-12-12T09:34:06.609Z,99.60
2018-12-12T09:37:25.827Z,99.85
2018-12-12T09:40:32.591Z,99.82
2018-12-12T09:43:39.360Z,99.79
2018-12-12T09:46:58.548Z,99.39
2018-12-12T09:50:06.002Z,99.77
2018-12-12T09:53:12.693Z,99.66
2018-12-12T09:56:19.455Z,99.42
2018-12-12T09:59:38.441Z,99.68
2018-12-12T10:02:45.108Z,99.57
2018-12-12T10:05:52.102Z,99.94
2018-12-12T10:09:11.114Z,99.62
2018-12-12T10:12:17.901Z,99.73
2018-12-12T10:15:24.801Z,100.00
2018-12-12T10:18:43.785Z,99.80
2018-12-12T10:21:50.982Z,99.71
2018-12-12T10:24:57.755Z,99.75
2018-12-12T10:28:05.230Z,99.65
2018-12-12T10:31:12.233Z,99.24
2018-12-12T10:34:19.081Z,99.53
2018-12-12T10:37:38.125Z,99.52
2018-12-12T10:40:44.887Z,99.25
2018-12-12T10:43:51.655Z,99.58
2018-12-12T10:47:10.834Z,99.76
2018-12-12T10:50:18.593Z,99.54
2018-12-12T10:53:37.915Z,99.15
2018-12-12T10:56:44.675Z,99.54
2018-12-12T10:59:51.337Z,99.86
2018-12-12T11:03:16.489Z,99.67
2018-12-12T11:06:43.875Z,99.32
2018-12-12T11:09:50.847Z,99.13
2018-12-12T11:12:57.607Z,99.67
2018-12-12T11:16:05.277Z,99.53
2018-12-12T11:19:12.174Z,99.61
2018-12-12T11:22:18.947Z,99.69
2018-12-12T11:25:44.149Z,99.56
2018-12-12T11:28:50.910Z,98.99
2018-12-12T11:31:58.578Z,99.12
2018-12-12T11:35:06.006Z,99.33
2018-12-12T11:38:12.775Z,99.47
2018-12-12T11:41:19.638Z,99.18
2018-12-12T11:44:26.499Z,99.14
2018-12-12T11:47:46.038Z,99.14
2018-12-12T11:50:52.857Z,99.08
2018-12-12T11:53:59.530Z,99.02
2018-12-12T11:57:07.006Z,99.07
2018-12-12T12:00:14.101Z,99.23
2018-12-12T12:03:20.763Z,99.20
2018-12-12T12:06:27.502Z,99.09
2018-12-12T12:09:34.216Z,99.08
2018-12-12T12:12:40.971Z,99.06
2018-12-12T12:16:02.086Z,98.81
2018-12-12T12:19:08.742Z,98.97
2018-12-12T12:22:15.498Z,99.39
2018-12-12T12:25:34.801Z,98.87
2018-12-12T12:28:41.883Z,99.45
2018-12-12T12:31:48.954Z,98.79
2018-12-12T12:34:55.728Z,98.73
2018-12-12T12:38:11.182Z,99.10
2018-12-12T12:41:17.833Z,98.96
2018-12-12T12:44:24.617Z,99.09
2018-12-12T12:47:43.753Z,99.25
2018-12-12T12:50:50.511Z,99.08
2018-12-12T12:53:57.471Z,99.36
2018-12-12T12:57:16.471Z,99.17
2018-12-12T13:00:23.217Z,99.07
2018-12-12T13:03:29.874Z,99.37
2018-12-12T13:06:49.177Z,99.27
2018-12-12T13:09:56.084Z,98.88
2018-12-12T13:13:03.030Z,99.02
2018-12-12T13:16:10.035Z,98.77
2018-12-12T13:19:29.089Z,99.37
2018-12-12T13:22:35.798Z,99.09
2018-12-12T13:25:42.565Z,99.15
2018-12-12T13:29:01.786Z,99.05
2018-12-12T13:32:08.457Z,99.00
2018-12-12T13:35:15.654Z,99.51
2018-12-12T13:38:34.466Z,99.16
2018-12-12T13:41:41.475Z,99.36
2018-12-12T13:44:48.371Z,99.06
2018-12-12T13:48:12.671Z,99.04
2018-12-12T13:51:19.354Z,99.48
2018-12-12T13:54:40.154Z,98.71
2018-12-12T13:57:46.922Z,98.81
2018-12-12T14:00:53.371Z,99.08
2018-12-12T14:04:01.389Z,98.82
2018-12-12T14:07:08.148Z,98.39
2018-12-12T14:10:23.845Z,98.63
2018-12-12T14:13:30.694Z,98.61
2018-12-12T14:16:37.342Z,98.69
2018-12-12T14:19:57.646Z,98.95
2018-12-12T14:23:04.749Z,98.96
2018-12-12T14:26:11.734Z,98.68
2018-12-12T14:29:18.702Z,98.51
2018-12-12T14:32:25.932Z,98.19
2018-12-12T14:35:44.775Z,98.50
2018-12-12T14:38:50.802Z,98.71
2018-12-12T14:41:58.314Z,98.49
2018-12-12T14:45:19.469Z,98.50
2018-12-12T14:48:30.291Z,98.20
2018-12-12T14:51:34.773Z,98.54
2018-12-12T14:54:53.782Z,98.78
2018-12-12T14:58:00.649Z,98.69
2018-12-12T15:01:07.358Z,98.39
2018-12-12T15:04:36.066Z,98.27
2018-12-12T15:07:54.323Z,98.34
2018-12-12T15:11:01.284Z,98.33
2018-12-12T15:14:08.760Z,98.26
2018-12-12T15:17:15.654Z,98.19
2018-12-12T15:20:22.325Z,98.30
2018-12-12T15:23:41.490Z,98.29
2018-12-12T15:26:48.549Z,98.21
2018-12-12T15:29:55.224Z,98.09
2018-12-12T15:33:14.341Z,97.94
2018-12-12T15:36:21.058Z,98.25
2018-12-12T15:39:27.760Z,98.50
2018-12-12T15:42:47.071Z,98.79
2018-12-12T15:45:53.743Z,98.43
2018-12-12T15:49:12.557Z,98.45
2018-12-12T15:52:24.560Z,98.51
2018-12-12T15:55:32.236Z,98.78
2018-12-12T15:58:38.973Z,98.26
2018-12-12T16:01:46.907Z,98.75
2018-12-12T16:05:06.513Z,98.66
2018-12-12T16:08:25.967Z,98.41
2018-12-12T16:11:32.729Z,98.57
2018-12-12T16:14:39.405Z,98.64
2018-12-12T16:17:46.058Z,98.52
2018-12-12T16:20:52.813Z,98.68
2018-12-12T16:23:59.579Z,98.56
2018-12-12T16:27:18.691Z,98.83
2018-12-12T16:30:25.445Z,98.63
2018-12-12T16:33:32.198Z,98.45
2018-12-12T16:36:51.368Z,99.02
2018-12-12T16:39:58.454Z,98.72
2018-12-12T16:43:05.216Z,98.95
2018-12-12T16:46:25.001Z,98.70
2018-12-12T16:49:43.942Z,98.70
2018-12-12T16:52:50.617Z,98.82
2018-12-12T16:56:09.865Z,99.16
2018-12-12T16:59:16.531Z,99.10
2018-12-12T17:02:23.186Z,98.99
2018-12-12T17:05:47.624Z,99.00
2018-12-12T17:08:54.375Z,98.97
2018-12-12T17:12:01.129Z,98.92
2018-12-12T17:15:20.333Z,98.81
2018-12-12T17:18:40.282Z,99.01
2018-12-12T17:22:01.859Z,98.94
2018-12-12T17:25:09.010Z,98.97
2018-12-12T17:28:16.038Z,98.90
2018-12-12T17:31:22.821Z,98.93
2018-12-12T17:34:30.455Z,99.04
2018-12-12T17:37:37.163Z,98.60
2018-12-12T17:40:56.148Z,98.96
2018-12-12T17:44:03.339Z,98.53
2018-12-12T17:47:29.590Z,98.75
2018-12-12T17:50:48.661Z,98.54
2018-12-12T17:53:55.336Z,98.30
2018-12-12T17:57:02.005Z,98.94
2018-12-12T18:00:23.266Z,98.71
2018-12-12T18:03:48.621Z,98.87
2018-12-12T18:06:55.374Z,99.16
2018-12-12T18:10:02.044Z,98.73
2018-12-12T18:13:21.416Z,98.96
2018-12-12T18:16:28.166Z,98.79
2018-12-12T18:19:34.819Z,98.92
2018-12-12T18:22:54.002Z,99.07
2018-12-12T18:26:00.647Z,98.90
2018-12-12T18:29:07.444Z,99.06
2018-12-12T18:32:26.702Z,98.98
2018-12-12T18:35:33.471Z,99.10
2018-12-12T18:38:40.132Z,98.76
2018-12-12T18:41:47.974Z,99.01
2018-12-12T18:44:54.736Z,98.88
2018-12-12T18:48:13.818Z,99.23
2018-12-12T18:51:20.578Z,99.22
2018-12-12T18:54:27.257Z,99.09
2018-12-12T18:57:33.927Z,99.33
2018-12-12T19:00:40.716Z,99.54
2018-12-12T19:03:47.371Z,99.53
2018-12-12T19:07:06.533Z,99.22
2018-12-12T19:10:13.295Z,99.27
2018-12-12T19:13:19.950Z,99.04
2018-12-12T19:16:39.196Z,99.22
2018-12-12T19:19:46.060Z,99.77
2018-12-12T19:22:52.970Z,99.83
2018-12-12T19:26:11.893Z,99.52
2018-12-12T19:29:18.641Z,99.59
2018-12-12T19:32:25.578Z,99.52
2018-12-12T19:35:45.502Z,99.72
2018-12-12T19:38:52.265Z,99.34
2018-12-12T19:41:58.914Z,99.15
2018-12-12T19:45:18.414Z,99.34
2018-12-12T19:48:25.195Z,99.35
2018-12-12T19:51:31.970Z,99.36
2018-12-12T19:54:38.639Z,99.23
2018-12-12T19:57:45.419Z,99.03
2018-12-12T20:00:52.188Z,99.52
2018-12-12T20:03:59.387Z,98.89
2018-12-12T20:07:06.086Z,99.22
2018-12-12T20:10:25.634Z,99.65
2018-12-12T20:13:32.301Z,99.42
2018-12-12T20:16:38.963Z,99.24
2018-12-12T20:19:59.877Z,99.54
2018-12-12T20:23:07.081Z,99.32
2018-12-12T20:26:14.037Z,99.40
2018-12-12T20:29:21.176Z,99.65
2018-12-12T20:32:27.847Z,98.98
2018-12-12T20:35:48.995Z,98.96
2018-12-12T20:38:56.226Z,99.25
2018-12-12T20:42:03.198Z,99.35
2018-12-12T20:45:10.238Z,99.72
2018-12-12T20:48:17.077Z,99.87
2018-12-12T20:51:36.099Z,99.62
2018-12-12T20:54:42.797Z,99.59
2018-12-12T20:57:49.478Z,99.77
2018-12-12T21:01:08.785Z,99.52
2018-12-12T21:04:15.546Z,99.67
2018-12-12T21:07:22.204Z,99.88
2018-12-12T21:10:43.457Z,100.00
2018-12-12T21:13:50.121Z,99.69
2018-12-12T21:17:10.899Z,99.63
2018-12-12T21:20:17.646Z,99.40
2018-12-12T21:23:24.451Z,99.75
2018-12-12T21:26:44.651Z,99.52
2018-12-12T21:29:51.403Z,99.81
2018-12-12T21:33:10.777Z,99.93
2018-12-12T21:36:17.825Z,99.97
2018-12-12T21:39:24.535Z,100.00
2018-12-12T21:42:31.319Z,99.90
2018-12-12T21:45:37.982Z,100.00
2018-12-12T21:48:47.737Z,99.94
2018-12-12T21:52:03.058Z,99.57
2018-12-12T21:55:10.291Z,99.79
2018-12-12T21:58:17.053Z,99.77
2018-12-12T22:01:23.725Z,99.87
2018-12-12T22:04:42.899Z,99.91
2018-12-12T22:07:49.574Z,99.98
2018-12-12T22:11:08.382Z,99.77
2018-12-12T22:14:15.267Z,99.64
2018-12-12T22:17:22.138Z,99.94
2018-12-12T22:20:41.023Z,100.00
2018-12-12T22:23:47.877Z,99.93
2018-12-12T22:26:54.576Z,99.89
2018-12-12T22:30:13.762Z,100.00
2018-12-12T22:33:20.456Z,99.56
2018-12-12T22:36:27.358Z,99.70
2018-12-12T22:39:46.473Z,100.00
2018-12-12T22:42:53.145Z,99.95
2018-12-12T22:46:11.922Z,99.87
2018-12-12T22:49:19.111Z,99.89
2018-12-12T22:52:26.110Z,99.76
2018-12-12T22:55:32.871Z,99.81
2018-12-12T22:58:39.110Z,99.66
2018-12-12T23:01:45.895Z,99.80
2018-12-12T23:04:51.837Z,99.91
2018-12-12T23:07:58.555Z,100.00
2018-12-12T23:11:17.469Z,99.78
2018-12-12T23:14:24.142Z,100.00
2018-12-12T23:17:42.949Z,99.43
2018-12-12T23:20:49.710Z,99.55
2018-12-12T23:23:56.509Z,99.66
2018-12-12T23:27:15.605Z,99.74
2018-12-12T23:30:21.632Z,99.96
2018-12-12T23:33:28.526Z,99.46
2018-12-12T23:36:35.703Z,99.79
2018-12-12T23:39:42.484Z,99.83
2018-12-12T23:42:49.130Z,99.77
2018-12-12T23:46:08.322Z,99.81
2018-12-12T23:49:14.986Z,100.00
2018-12-12T23:52:33.816Z,100.00
2018-12-12T23:55:40.489Z,99.68
2018-12-12T23:58:47.283Z,99.92
